Time;durP1;ratioP1;P1;durP2;ratioP2;P2;SDS_P1;SDS_P2;PMS_P1;PMS_P2;Temp;Humidity;BMP_temperature;BMP_pressure;BME280_temperature;BME280_humidity;BME280_pressure;Samples;Min_cycle;Max_cycle;Signal;HPM_P1;HPM_P2
2022/03/04 00:01:56;;;;;;;25.50;11.27;;;;;;;;;;6220245;28;20117;-80
2022/03/04 00:04:57;;;;;;;27.65;12.80;;;;;;;;;;6222154;28;20054;-80
2022/03/04 00:07:59;;;;;;;26.58;12.52;;;;;;;;;;6220889;28;20127;-81
2022/03/04 00:11:02;;;;;;;24.88;11.52;;;;;;;;;;6221309;28;20133;-81
2022/03/04 00:14:06;;;;;;;26.73;10.88;;;;;;;;;;6220620;28;20099;-81
2022/03/04 00:17:08;;;;;;;24.95;10.57;;;;;;;;;;6220126;28;20427;-80
2022/03/04 00:20:10;;;;;;;23.27;11.10;;;;;;;;;;6217642;28;20054;-80
2022/03/04 00:23:13;;;;;;;24.48;10.32;;;;;;;;;;6222328;28;20123;-81
2022/03/04 00:26:15;;;;;;;26.98;11.48;;;;;;;;;;6225150;28;20041;-81
2022/03/04 00:29:16;;;;;;;24.92;10.63;;;;;;;;;;6246495;28;20049;-80
2022/03/04 00:32:20;;;;;;;25.38;11.07;;;;;;;;;;6246545;28;20422;-80
2022/03/04 00:35:21;;;;;;;24.15;10.32;;;;;;;;;;6245735;28;20095;-80
2022/03/04 00:38:23;;;;;;;23.45;10.73;;;;;;;;;;6246133;28;20509;-81
2022/03/04 00:41:25;;;;;;;26.77;10.98;;;;;;;;;;6242115;28;20088;-81
2022/03/04 00:44:27;;;;;;;24.83;10.02;;;;;;;;;;6237046;28;20069;-81
2022/03/04 00:47:29;;;;;;;21.52;9.52;;;;;;;;;;6236801;28;20378;-80
2022/03/04 00:50:30;;;;;;;20.63;10.23;;;;;;;;;;6235595;28;20070;-81
2022/03/04 00:53:32;;;;;;;24.80;9.70;;;;;;;;;;6222405;28;20088;-80
2022/03/04 00:56:34;;;;;;;26.58;10.63;;;;;;;;;;6225539;28;20735;-80
2022/03/04 00:59:36;;;;;;;22.13;9.32;;;;;;;;;;6244194;28;20045;-81
2022/03/04 01:02:37;;;;;;;21.20;10.00;;;;;;;;;;6244297;28;20079;-82
2022/03/04 01:05:39;;;;;;;22.50;9.73;;;;;;;;;;6242673;28;20050;-81
2022/03/04 01:08:41;;;;;;;20.13;9.20;;;;;;;;;;6220740;28;20110;-81
2022/03/04 01:11:43;;;;;;;18.38;8.18;;;;;;;;;;6226433;28;20104;-79
2022/03/04 01:14:44;;;;;;;19.95;8.57;;;;;;;;;;6245228;28;20125;-80
2022/03/04 01:17:46;;;;;;;23.00;8.93;;;;;;;;;;6248174;28;20061;-80
2022/03/04 01:20:47;;;;;;;19.17;8.63;;;;;;;;;;6228214;28;20092;-80
2022/03/04 01:23:49;;;;;;;19.40;8.60;;;;;;;;;;6245326;28;20061;-80
2022/03/04 01:26:51;;;;;;;23.33;9.82;;;;;;;;;;6243462;28;20053;-81
2022/03/04 01:29:52;;;;;;;21.52;9.55;;;;;;;;;;6243657;28;20132;-80
2022/03/04 01:32:54;;;;;;;21.42;9.00;;;;;;;;;;6245900;28;20053;-80
2022/03/04 01:35:56;;;;;;;19.85;9.15;;;;;;;;;;6244889;28;20135;-80
2022/03/04 01:38:58;;;;;;;26.38;10.00;;;;;;;;;;6205212;28;20585;-80
2022/03/04 01:42:00;;;;;;;23.65;10.27;;;;;;;;;;6220661;28;20145;-80
2022/03/04 01:45:05;;;;;;;27.57;10.47;;;;;;;;;;6221978;28;20038;-80
2022/03/04 01:48:06;;;;;;;21.83;10.07;;;;;;;;;;6221524;28;20642;-80
2022/03/04 01:51:09;;;;;;;22.90;9.57;;;;;;;;;;6221771;28;20057;-80
2022/03/04 01:54:12;;;;;;;25.10;10.18;;;;;;;;;;6222995;28;20045;-81
2022/03/04 01:57:14;;;;;;;22.63;11.13;;;;;;;;;;6219328;28;20042;-81
2022/03/04 02:00:17;;;;;;;;;;;;;;;;;;6215953;28;20399;-82
2022/03/04 02:03:18;;;;;;;18.75;8.15;;;;;;;;;;6233231;28;19937;-80
2022/03/04 02:06:20;;;;;;;19.52;9.13;;;;;;;;;;6219640;28;20046;-81
2022/03/04 02:09:22;;;;;;;26.38;10.50;;;;;;;;;;6220612;28;20046;-81
2022/03/04 02:12:23;;;;;;;28.17;10.73;;;;;;;;;;6224284;28;20096;-80
2022/03/04 02:15:25;;;;;;;24.77;9.73;;;;;;;;;;6225191;28;20165;-80
2022/03/04 02:18:27;;;;;;;27.13;10.75;;;;;;;;;;6224269;28;20046;-80
2022/03/04 02:21:32;;;;;;;20.83;9.85;;;;;;;;;;6224876;28;20065;-81
2022/03/04 02:24:34;;;;;;;21.83;8.50;;;;;;;;;;6225992;28;20042;-81
2022/03/04 02:27:35;;;;;;;18.58;8.63;;;;;;;;;;6224606;28;20038;-80
2022/03/04 02:30:37;;;;;;;19.38;8.20;;;;;;;;;;6242590;28;20053;-81
2022/03/04 02:33:39;;;;;;;22.20;9.68;;;;;;;;;;6248791;28;20572;-81
2022/03/04 02:36:41;;;;;;;23.08;9.18;;;;;;;;;;6242978;28;20061;-81
2022/03/04 02:39:42;;;;;;;17.52;8.13;;;;;;;;;;6250370;28;20057;-81
2022/03/04 02:42:44;;;;;;;21.40;10.00;;;;;;;;;;6254451;28;20041;-81
2022/03/04 02:45:47;;;;;;;20.42;9.65;;;;;;;;;;6249647;28;20124;-80
2022/03/04 02:48:49;;;;;;;22.80;9.27;;;;;;;;;;6248050;28;20057;-81
2022/03/04 02:51:50;;;;;;;21.33;8.90;;;;;;;;;;6236542;28;20125;-81
2022/03/04 02:54:52;;;;;;;22.90;9.93;;;;;;;;;;6244340;28;20129;-81
2022/03/04 02:57:54;;;;;;;23.90;10.57;;;;;;;;;;6239394;28;20765;-81
2022/03/04 03:00:55;;;;;;;22.48;8.85;;;;;;;;;;6223790;28;20102;-81
2022/03/04 03:03:57;;;;;;;23.38;9.85;;;;;;;;;;6223845;28;20061;-81
2022/03/04 03:06:59;;;;;;;21.58;9.38;;;;;;;;;;6225081;28;20053;-81
2022/03/04 03:10:01;;;;;;;23.55;9.05;;;;;;;;;;6249743;28;20068;-80
2022/03/04 03:13:03;;;;;;;20.20;8.68;;;;;;;;;;6212490;28;20104;-81
2022/03/04 03:16:05;;;;;;;29.43;10.13;;;;;;;;;;6224315;28;20053;-82
2022/03/04 03:19:08;;;;;;;28.33;10.18;;;;;;;;;;6224055;28;20057;-82
2022/03/04 03:22:10;;;;;;;22.60;10.65;;;;;;;;;;6222536;28;20176;-82
2022/03/04 03:25:12;;;;;;;21.23;8.95;;;;;;;;;;6233768;28;20053;-81
2022/03/04 03:28:13;;;;;;;24.63;9.52;;;;;;;;;;6239467;28;20046;-82
2022/03/04 03:31:15;;;;;;;23.65;9.65;;;;;;;;;;6223081;28;20048;-82
2022/03/04 03:34:17;;;;;;;21.95;9.23;;;;;;;;;;6222177;28;20127;-82
2022/03/04 03:37:18;;;;;;;22.92;9.80;;;;;;;;;;6225012;28;20050;-82
2022/03/04 03:40:20;;;;;;;28.20;9.82;;;;;;;;;;6223869;28;20088;-82
2022/03/04 03:43:22;;;;;;;21.50;9.15;;;;;;;;;;6223295;28;20072;-82
2022/03/04 03:46:23;;;;;;;24.70;9.75;;;;;;;;;;6230706;28;20128;-81
2022/03/04 03:49:25;;;;;;;19.67;9.27;;;;;;;;;;6226054;28;20125;-82
2022/03/04 03:52:27;;;;;;;23.10;8.95;;;;;;;;;;6233005;28;20105;-83
2022/03/04 03:55:29;;;;;;;23.13;10.00;;;;;;;;;;6223831;28;20046;-82
2022/03/04 03:58:30;;;;;;;23.30;9.68;;;;;;;;;;6228126;28;20135;-82
2022/03/04 04:01:33;;;;;;;25.17;9.60;;;;;;;;;;6235723;28;20050;-83
2022/03/04 04:04:35;;;;;;;25.08;9.40;;;;;;;;;;6230935;28;20049;-80
2022/03/04 04:07:37;;;;;;;25.42;8.48;;;;;;;;;;6229234;28;20069;-82
2022/03/04 04:10:39;;;;;;;23.85;9.82;;;;;;;;;;6232791;28;20042;-81
2022/03/04 04:13:40;;;;;;;22.27;8.95;;;;;;;;;;6225270;28;20066;-82
2022/03/04 04:16:42;;;;;;;20.85;9.73;;;;;;;;;;6235330;28;20116;-81
2022/03/04 04:19:43;;;;;;;24.00;9.98;;;;;;;;;;6242974;28;20088;-81
2022/03/04 04:22:45;;;;;;;25.17;9.73;;;;;;;;;;6245817;28;20038;-85
2022/03/04 04:25:47;;;;;;;26.10;10.32;;;;;;;;;;6246398;28;20045;-81
2022/03/04 04:28:50;;;;;;;26.33;9.65;;;;;;;;;;6223658;28;20443;-82
2022/03/04 04:31:53;;;;;;;24.42;9.43;;;;;;;;;;6219946;28;20097;-83
2022/03/04 04:34:54;;;;;;;24.05;9.13;;;;;;;;;;6220339;28;20052;-82
2022/03/04 04:37:57;;;;;;;25.48;9.50;;;;;;;;;;6218215;28;20034;-82
2022/03/04 04:40:58;;;;;;;21.30;8.93;;;;;;;;;;6219357;28;20073;-82
2022/03/04 04:44:00;;;;;;;21.27;9.38;;;;;;;;;;6219823;28;20089;-83
2022/03/04 04:47:02;;;;;;;21.88;9.15;;;;;;;;;;6235301;28;20037;-82
2022/03/04 04:50:05;;;;;;;24.75;10.45;;;;;;;;;;6242225;28;20121;-81
2022/03/04 04:53:06;;;;;;;23.23;9.97;;;;;;;;;;6234063;28;20053;-83
2022/03/04 04:56:08;;;;;;;22.10;9.23;;;;;;;;;;6218235;28;20045;-83
2022/03/04 04:59:10;;;;;;;22.20;9.73;;;;;;;;;;6227888;28;20049;-81
2022/03/04 05:02:12;;;;;;;23.95;9.80;;;;;;;;;;6241462;28;20191;-80
2022/03/04 05:05:14;;;;;;;24.60;9.63;;;;;;;;;;6242821;28;20049;-82
2022/03/04 05:08:16;;;;;;;24.02;10.00;;;;;;;;;;6224931;28;20038;-81
2022/03/04 05:11:18;;;;;;;22.52;9.02;;;;;;;;;;6219280;28;20514;-81
2022/03/04 05:14:19;;;;;;;22.85;10.13;;;;;;;;;;6242364;28;20079;-82
2022/03/04 05:17:21;;;;;;;26.55;10.88;;;;;;;;;;6241216;28;20128;-83
2022/03/04 05:20:23;;;;;;;28.02;10.50;;;;;;;;;;6241459;28;20052;-81
2022/03/04 05:26:44;;;;;;;31.60;11.88;;;;;;;;;;6217139;28;20543;-80
2022/03/04 05:29:46;;;;;;;23.85;10.93;;;;;;;;;;6217128;28;20060;-82
2022/03/04 05:32:48;;;;;;;28.13;11.65;;;;;;;;;;6215755;28;20604;-82
2022/03/04 05:35:49;;;;;;;26.65;11.60;;;;;;;;;;6216505;28;20076;-82
2022/03/04 05:38:51;;;;;;;26.92;11.57;;;;;;;;;;6222169;28;20076;-82
2022/03/04 05:41:53;;;;;;;27.35;11.50;;;;;;;;;;6239124;28;20407;-84
2022/03/04 05:44:54;;;;;;;34.65;12.30;;;;;;;;;;6227134;28;20104;-82
2022/03/04 05:47:56;;;;;;;28.45;10.50;;;;;;;;;;6248080;28;20195;-80
2022/03/04 05:50:57;;;;;;;28.15;12.00;;;;;;;;;;6237652;28;20129;-81
2022/03/04 05:53:59;;;;;;;26.35;11.15;;;;;;;;;;6223491;28;20203;-82
2022/03/04 05:57:01;;;;;;;31.13;11.85;;;;;;;;;;6238532;28;20141;-81
2022/03/04 06:00:04;;;;;;;29.00;11.65;;;;;;;;;;6224045;28;20501;-83
2022/03/04 06:03:07;;;;;;;26.98;10.85;;;;;;;;;;6223153;28;20352;-80
2022/03/04 06:06:11;;;;;;;32.70;11.60;;;;;;;;;;6223040;28;20519;-81
2022/03/04 06:09:12;;;;;;;;;;;;;;;;;;6223886;28;20126;-80
2022/03/04 06:12:14;;;;;;;25.05;11.05;;;;;;;;;;6236667;28;19974;-80
2022/03/04 06:15:16;;;;;;;29.02;11.80;;;;;;;;;;6250878;28;20045;-81
2022/03/04 06:18:17;;;;;;;30.27;11.43;;;;;;;;;;6249229;28;20080;-80
2022/03/04 06:21:20;;;;;;;26.40;11.38;;;;;;;;;;6234855;28;20566;-80
2022/03/04 06:24:22;;;;;;;30.15;11.98;;;;;;;;;;6224404;28;20136;-80
2022/03/04 06:27:23;;;;;;;24.55;10.85;;;;;;;;;;6236614;28;20041;-80
2022/03/04 06:30:27;;;;;;;29.33;11.15;;;;;;;;;;6251694;28;20061;-79
2022/03/04 06:33:32;;;;;;;27.73;10.07;;;;;;;;;;6249608;28;20099;-81
2022/03/04 06:36:34;;;;;;;24.30;10.45;;;;;;;;;;6231522;28;20093;-81
2022/03/04 06:39:35;;;;;;;34.45;11.98;;;;;;;;;;6224814;28;20128;-80
2022/03/04 06:42:38;;;;;;;25.38;11.77;;;;;;;;;;6224976;28;20503;-82
2022/03/04 06:45:42;;;;;;;30.80;12.25;;;;;;;;;;6227134;28;20139;-80
2022/03/04 06:48:44;;;;;;;27.60;10.63;;;;;;;;;;6249887;28;20053;-80
2022/03/04 06:51:46;;;;;;;27.77;12.00;;;;;;;;;;6228986;28;20074;-79
2022/03/04 06:54:48;;;;;;;33.15;12.57;;;;;;;;;;6251165;28;20128;-82
2022/03/04 06:57:51;;;;;;;51.67;17.35;;;;;;;;;;6235932;28;20045;-81
2022/03/04 07:00:52;;;;;;;27.77;12.23;;;;;;;;;;6245222;28;20550;-80
2022/03/04 07:03:54;;;;;;;37.17;13.57;;;;;;;;;;6248081;28;20045;-80
2022/03/04 07:06:56;;;;;;;28.70;12.65;;;;;;;;;;6223452;28;20046;-79
2022/03/04 07:09:58;;;;;;;40.53;17.55;;;;;;;;;;6223411;28;20053;-79
2022/03/04 07:13:00;;;;;;;28.70;13.02;;;;;;;;;;6241872;28;20045;-79
2022/03/04 07:16:03;;;;;;;53.55;23.42;;;;;;;;;;6248340;28;20045;-79
2022/03/04 07:19:04;;;;;;;39.88;17.20;;;;;;;;;;6251686;28;20128;-79
2022/03/04 07:22:06;;;;;;;36.28;13.95;;;;;;;;;;6248993;28;20098;-80
2022/03/04 07:25:13;;;;;;;38.25;14.18;;;;;;;;;;6249244;28;20048;-83
2022/03/04 07:28:15;;;;;;;33.05;14.80;;;;;;;;;;6208641;28;20987;-81
2022/03/04 07:31:17;;;;;;;38.80;16.52;;;;;;;;;;6221920;28;20045;-81
2022/03/04 07:34:19;;;;;;;32.97;14.77;;;;;;;;;;6227297;28;20160;-81
2022/03/04 07:37:20;;;;;;;32.55;13.95;;;;;;;;;;6280311;28;20153;-81
2022/03/04 07:40:22;;;;;;;29.73;13.55;;;;;;;;;;6247950;28;20153;-82
2022/03/04 07:43:28;;;;;;;27.02;12.15;;;;;;;;;;6246251;28;20099;-80
2022/03/04 07:46:33;;;;;;;41.28;14.85;;;;;;;;;;6246409;28;20517;-81
2022/03/04 07:49:35;;;;;;;30.48;14.23;;;;;;;;;;6231117;28;20048;-80
2022/03/04 07:52:36;;;;;;;32.85;14.02;;;;;;;;;;6228205;28;20220;-81
2022/03/04 07:55:44;;;;;;;33.97;14.30;;;;;;;;;;6241971;28;20079;-82
2022/03/04 07:58:45;;;;;;;31.67;15.05;;;;;;;;;;6240848;28;20107;-83
2022/03/04 08:01:47;;;;;;;35.95;15.68;;;;;;;;;;6234610;28;20053;-81
2022/03/04 08:04:49;;;;;;;42.15;17.25;;;;;;;;;;6230669;28;20069;-82
2022/03/04 08:07:51;;;;;;;37.08;15.05;;;;;;;;;;6231486;28;20037;-81
2022/03/04 08:10:54;;;;;;;40.35;16.58;;;;;;;;;;6242380;28;20049;-80
2022/03/04 08:13:55;;;;;;;35.97;15.38;;;;;;;;;;6255305;28;20069;-80
2022/03/04 08:16:57;;;;;;;35.05;15.48;;;;;;;;;;6234595;28;20128;-82
2022/03/04 08:19:59;;;;;;;40.88;16.20;;;;;;;;;;6231027;28;20050;-81
2022/03/04 08:23:00;;;;;;;38.28;15.52;;;;;;;;;;6233828;28;20052;-81
2022/03/04 08:26:03;;;;;;;40.03;17.75;;;;;;;;;;6247944;28;20143;-80
2022/03/04 08:29:06;;;;;;;32.03;14.48;;;;;;;;;;6219614;28;20041;-82
2022/03/04 08:32:08;;;;;;;35.58;15.25;;;;;;;;;;6224804;28;20530;-83
2022/03/04 08:35:10;;;;;;;35.20;15.70;;;;;;;;;;6229542;28;20111;-81
2022/03/04 08:38:12;;;;;;;39.25;15.38;;;;;;;;;;6238275;28;20114;-79
2022/03/04 08:41:14;;;;;;;27.48;13.25;;;;;;;;;;6227232;28;20045;-81
2022/03/04 08:44:17;;;;;;;32.80;15.18;;;;;;;;;;6238498;28;20124;-81
2022/03/04 08:47:20;;;;;;;31.40;14.57;;;;;;;;;;6235059;28;20144;-80
2022/03/04 08:50:25;;;;;;;30.30;14.32;;;;;;;;;;6241878;28;20045;-79
2022/03/04 08:53:27;;;;;;;32.85;15.32;;;;;;;;;;6235964;28;20056;-80
2022/03/04 08:56:29;;;;;;;33.65;15.50;;;;;;;;;;6223970;28;20053;-80
2022/03/04 08:59:32;;;;;;;40.67;16.45;;;;;;;;;;6229107;28;20099;-81
2022/03/04 09:02:34;;;;;;;34.80;15.05;;;;;;;;;;6233469;28;20033;-81
2022/03/04 09:05:36;;;;;;;34.28;16.23;;;;;;;;;;6235869;28;20136;-82
2022/03/04 09:08:38;;;;;;;35.75;15.50;;;;;;;;;;6226472;28;20129;-81
2022/03/04 09:11:41;;;;;;;35.88;15.10;;;;;;;;;;6235293;28;20101;-81
2022/03/04 09:14:42;;;;;;;34.57;15.97;;;;;;;;;;6219785;28;20129;-79
2022/03/04 09:17:44;;;;;;;34.58;15.65;;;;;;;;;;6220871;28;20125;-81
2022/03/04 09:20:47;;;;;;;35.97;14.82;;;;;;;;;;6216470;28;20061;-80
2022/03/04 09:23:48;;;;;;;34.17;15.23;;;;;;;;;;6223920;28;20121;-80
2022/03/04 09:26:50;;;;;;;35.08;15.45;;;;;;;;;;6219502;28;20081;-81
2022/03/04 09:29:52;;;;;;;34.97;15.65;;;;;;;;;;6222845;28;20072;-81
2022/03/04 09:32:53;;;;;;;36.53;16.08;;;;;;;;;;6222516;28;20041;-83
2022/03/04 09:35:55;;;;;;;34.03;15.95;;;;;;;;;;6223095;28;20056;-81
2022/03/04 09:38:58;;;;;;;36.45;15.55;;;;;;;;;;6223278;28;20069;-79
2022/03/04 09:42:00;;;;;;;33.60;15.70;;;;;;;;;;6206921;28;20042;-82
2022/03/04 09:45:03;;;;;;;35.03;14.20;;;;;;;;;;6221270;28;20062;-80
2022/03/04 09:48:05;;;;;;;37.38;15.32;;;;;;;;;;6254804;28;20042;-83
2022/03/04 09:51:07;;;;;;;34.95;15.73;;;;;;;;;;6220624;28;20460;-81
2022/03/04 09:54:09;;;;;;;30.97;14.50;;;;;;;;;;6223608;28;20096;-82
2022/03/04 09:57:11;;;;;;;34.63;15.95;;;;;;;;;;6246630;28;20088;-80
2022/03/04 10:00:14;;;;;;;35.60;15.20;;;;;;;;;;6225867;28;20088;-80
2022/03/04 10:03:21;;;;;;;39.35;16.33;;;;;;;;;;6247931;28;20048;-81
2022/03/04 10:06:23;;;;;;;34.78;16.80;;;;;;;;;;6236897;28;20395;-79
2022/03/04 10:09:42;;;;;;;35.70;16.50;;;;;;;;;;6252915;28;20060;-80
2022/03/04 10:12:56;;;;;;;36.83;16.38;;;;;;;;;;6240547;28;20045;-79
2022/03/04 10:15:58;;;;;;;34.88;15.23;;;;;;;;;;6250582;28;20064;-82
2022/03/04 10:19:07;;;;;;;37.80;17.05;;;;;;;;;;6254754;28;20076;-84
2022/03/04 10:22:08;;;;;;;34.20;14.82;;;;;;;;;;6245946;28;20061;-82
2022/03/04 10:25:19;;;;;;;32.65;15.55;;;;;;;;;;6241257;28;20080;-85
2022/03/04 10:28:28;;;;;;;35.10;15.98;;;;;;;;;;6244283;28;20049;-82
2022/03/04 10:31:30;;;;;;;36.70;15.98;;;;;;;;;;6255627;28;20134;-79
2022/03/04 10:34:56;;;;;;;35.90;16.75;;;;;;;;;;6260484;28;20219;-80
2022/03/04 10:37:58;;;;;;;33.05;15.05;;;;;;;;;;6254778;28;20045;-81
2022/03/04 10:41:24;;;;;;;35.50;16.60;;;;;;;;;;6251946;28;20438;-82
2022/03/04 10:44:26;;;;;;;34.75;15.77;;;;;;;;;;6224618;28;20129;-84
2022/03/04 10:47:40;;;;;;;35.13;15.65;;;;;;;;;;6224305;28;20054;-80
2022/03/04 10:50:46;;;;;;;32.83;15.65;;;;;;;;;;6236179;28;20049;-80
2022/03/04 10:53:48;;;;;;;36.90;16.02;;;;;;;;;;6244058;28;20065;-81
2022/03/04 10:56:55;;;;;;;33.40;15.75;;;;;;;;;;6258758;28;20045;-80
2022/03/04 10:59:58;;;;;;;36.10;16.25;;;;;;;;;;6250605;28;20083;-82
2022/03/04 11:03:00;;;;;;;34.83;15.70;;;;;;;;;;6249345;28;20114;-83
2022/03/04 11:06:15;;;;;;;37.92;16.52;;;;;;;;;;6242028;28;20061;-83
2022/03/04 11:09:24;;;;;;;32.85;14.82;;;;;;;;;;6223416;28;20050;-83
2022/03/04 11:12:28;;;;;;;32.33;15.07;;;;;;;;;;6234869;28;20057;-81
2022/03/04 11:15:32;;;;;;;37.15;15.80;;;;;;;;;;6245697;28;20049;-85
2022/03/04 11:18:34;;;;;;;33.40;15.13;;;;;;;;;;6229884;28;20041;-84
2022/03/04 11:21:36;;;;;;;33.35;15.95;;;;;;;;;;6233777;28;20066;-81
2022/03/04 11:24:39;;;;;;;35.55;14.45;;;;;;;;;;6221008;28;20546;-86
2022/03/04 11:27:52;;;;;;;38.78;16.42;;;;;;;;;;6220777;28;20042;-84
2022/03/04 11:31:00;;;;;;;38.10;16.60;;;;;;;;;;6226894;28;20073;-83
2022/03/04 11:34:03;;;;;;;38.30;17.65;;;;;;;;;;6241118;28;20107;-82
2022/03/04 11:37:17;;;;;;;45.42;19.17;;;;;;;;;;6225893;28;20649;-82
2022/03/04 11:40:33;;;;;;;43.78;19.27;;;;;;;;;;6259843;28;20057;-81
2022/03/04 11:43:48;;;;;;;;;;;;;;;;;;6243478;28;20041;-85
2022/03/04 11:46:58;;;;;;;35.65;16.48;;;;;;;;;;6245988;28;20000;-83
2022/03/04 11:50:42;;;;;;;36.17;16.00;;;;;;;;;;6251695;28;20116;-83
2022/03/04 11:54:23;;;;;;;34.60;15.32;;;;;;;;;;6240358;28;20438;-83
2022/03/04 11:57:29;;;;;;;38.75;17.10;;;;;;;;;;6222684;28;20145;-84
2022/03/04 12:00:36;;;;;;;37.55;17.30;;;;;;;;;;6242573;28;20503;-82
2022/03/04 12:03:58;;;;;;;;;;;;;;;;;;6244523;28;20164;-83
2022/03/04 12:07:05;;;;;;;34.97;16.00;;;;;;;;;;6236379;28;19965;-82
2022/03/04 12:10:12;;;;;;;34.97;15.95;;;;;;;;;;6232071;28;20192;-82
2022/03/04 12:13:25;;;;;;;37.00;17.00;;;;;;;;;;6249085;28;20046;-83
2022/03/04 12:16:46;;;;;;;35.22;15.60;;;;;;;;;;6273896;28;20057;-83
2022/03/04 12:19:49;;;;;;;33.58;15.80;;;;;;;;;;6257034;28;20064;-84
2022/03/04 12:22:57;;;;;;;31.83;15.35;;;;;;;;;;6230665;28;20721;-83
2022/03/04 12:25:58;;;;;;;31.58;15.73;;;;;;;;;;6222132;28;20050;-83
2022/03/04 12:29:04;;;;;;;30.08;14.82;;;;;;;;;;6224673;28;20077;-83
2022/03/04 12:32:06;;;;;;;31.42;15.68;;;;;;;;;;6222732;28;20519;-85
2022/03/04 12:35:08;;;;;;;37.83;16.25;;;;;;;;;;6222893;28;20054;-83
2022/03/04 12:38:09;;;;;;;34.58;15.82;;;;;;;;;;6221755;28;20350;-83
2022/03/04 12:41:17;;;;;;;34.85;16.17;;;;;;;;;;6223991;28;20056;-84
2022/03/04 12:44:19;;;;;;;32.28;15.38;;;;;;;;;;6218773;28;20073;-83
2022/03/04 12:47:22;;;;;;;31.27;14.20;;;;;;;;;;6237268;28;20103;-81
2022/03/04 12:50:31;;;;;;;38.60;15.98;;;;;;;;;;6240719;28;20079;-80
2022/03/04 12:53:32;;;;;;;31.73;15.52;;;;;;;;;;6216462;28;20104;-81
2022/03/04 12:56:34;;;;;;;34.90;15.70;;;;;;;;;;6219084;28;20053;-81
2022/03/04 12:59:49;;;;;;;31.95;14.70;;;;;;;;;;6232377;28;20187;-81
2022/03/04 13:02:51;;;;;;;30.27;14.68;;;;;;;;;;6242754;28;20046;-81
2022/03/04 13:05:53;;;;;;;30.02;14.43;;;;;;;;;;6242148;28;20042;-80
2022/03/04 13:08:56;;;;;;;28.05;13.32;;;;;;;;;;6237475;28;20065;-82
2022/03/04 13:12:08;;;;;;;29.95;14.57;;;;;;;;;;6220031;28;20122;-82
2022/03/04 13:15:11;;;;;;;27.75;14.02;;;;;;;;;;6197794;28;20046;-83
2022/03/04 13:18:14;;;;;;;28.55;14.35;;;;;;;;;;6222739;28;20058;-83
2022/03/04 13:21:15;;;;;;;28.00;14.00;;;;;;;;;;6223255;28;20060;-81
2022/03/04 13:24:23;;;;;;;30.15;13.68;;;;;;;;;;6221821;28;20763;-82
2022/03/04 13:27:36;;;;;;;28.08;14.20;;;;;;;;;;6223045;28;20042;-81
2022/03/04 13:30:47;;;;;;;27.92;13.50;;;;;;;;;;6222225;28;20048;-82
2022/03/04 13:33:58;;;;;;;30.40;14.07;;;;;;;;;;6221138;28;20062;-82
2022/03/04 13:37:19;;;;;;;26.40;12.85;;;;;;;;;;6238663;28;20049;-81
2022/03/04 13:40:22;;;;;;;25.08;13.25;;;;;;;;;;6247208;28;20430;-81
2022/03/04 13:43:31;;;;;;;27.15;12.98;;;;;;;;;;6225873;28;20057;-82
2022/03/04 13:46:33;;;;;;;28.58;13.32;;;;;;;;;;6236627;28;20068;-82
2022/03/04 13:49:50;;;;;;;27.02;13.68;;;;;;;;;;6252885;28;20046;-82
2022/03/04 13:53:00;;;;;;;22.92;11.50;;;;;;;;;;6228252;28;20416;-83
2022/03/04 13:56:02;;;;;;;30.00;13.75;;;;;;;;;;6224917;28;20069;-80
2022/03/04 13:59:04;;;;;;;27.80;13.82;;;;;;;;;;6229289;28;20042;-79
2022/03/04 14:02:06;;;;;;;30.15;13.52;;;;;;;;;;6241403;28;20124;-81
2022/03/04 14:05:09;;;;;;;27.60;13.75;;;;;;;;;;6228590;28;20056;-81
2022/03/04 14:08:17;;;;;;;27.95;13.45;;;;;;;;;;6251351;28;20119;-80
2022/03/04 14:11:19;;;;;;;24.83;12.73;;;;;;;;;;6250191;28;20230;-80
2022/03/04 14:14:21;;;;;;;23.20;11.77;;;;;;;;;;6251010;28;20133;-81
2022/03/04 14:17:23;;;;;;;23.67;11.20;;;;;;;;;;6251589;28;20159;-80
2022/03/04 14:20:26;;;;;;;23.00;11.98;;;;;;;;;;6233106;28;20072;-80
2022/03/04 14:23:28;;;;;;;23.10;12.18;;;;;;;;;;6228145;28;20053;-79
2022/03/04 14:26:30;;;;;;;23.08;12.23;;;;;;;;;;6225138;28;20052;-84
2022/03/04 14:29:31;;;;;;;23.65;12.15;;;;;;;;;;6225105;28;20101;-82
2022/03/04 14:32:33;;;;;;;20.30;10.32;;;;;;;;;;6230628;28;20045;-83
2022/03/04 14:35:38;;;;;;;23.90;10.95;;;;;;;;;;6233996;28;20116;-84
2022/03/04 14:38:40;;;;;;;20.35;9.68;;;;;;;;;;6234269;28;20050;-83
2022/03/04 14:41:42;;;;;;;19.58;9.57;;;;;;;;;;6239403;28;20079;-83
2022/03/04 14:44:43;;;;;;;22.25;10.77;;;;;;;;;;6259452;28;20084;-84
2022/03/04 14:47:46;;;;;;;20.08;9.73;;;;;;;;;;6256112;28;20079;-85
2022/03/04 14:50:48;;;;;;;23.02;9.18;;;;;;;;;;6219380;28;20178;-83
2022/03/04 14:53:50;;;;;;;18.90;8.98;;;;;;;;;;6235620;28;20106;-83
2022/03/04 14:56:52;;;;;;;25.15;11.52;;;;;;;;;;6241116;28;20049;-83
2022/03/04 14:59:54;;;;;;;21.65;9.98;;;;;;;;;;6245069;28;20064;-84
2022/03/04 15:02:56;;;;;;;22.17;10.43;;;;;;;;;;6259561;28;20087;-82
2022/03/04 15:05:58;;;;;;;18.50;8.02;;;;;;;;;;6239831;28;20076;-83
2022/03/04 15:09:00;;;;;;;17.52;9.05;;;;;;;;;;6235664;28;20050;-83
2022/03/04 15:12:21;;;;;;;16.48;8.88;;;;;;;;;;6236188;28;22356;-84
2022/03/04 15:15:23;;;;;;;19.10;9.35;;;;;;;;;;6267964;28;20050;-83
2022/03/04 15:18:25;;;;;;;18.40;8.82;;;;;;;;;;6244924;28;20042;-82
2022/03/04 15:21:26;;;;;;;17.88;9.27;;;;;;;;;;6224570;28;20527;-83
2022/03/04 15:24:28;;;;;;;20.48;8.82;;;;;;;;;;6225594;28;20054;-83
2022/03/04 15:27:30;;;;;;;15.48;7.85;;;;;;;;;;6221656;28;20069;-83
2022/03/04 15:30:35;;;;;;;18.38;9.15;;;;;;;;;;6224625;28;20041;-83
2022/03/04 15:33:37;;;;;;;19.65;9.15;;;;;;;;;;6225183;28;20088;-82
2022/03/04 15:36:39;;;;;;;17.65;8.30;;;;;;;;;;6247838;28;20120;-83
2022/03/04 15:39:40;;;;;;;18.10;8.98;;;;;;;;;;6231886;28;20100;-83
2022/03/04 15:42:44;;;;;;;17.38;7.80;;;;;;;;;;6248634;28;20076;-82
2022/03/04 15:45:46;;;;;;;17.40;8.45;;;;;;;;;;6245179;28;20053;-83
2022/03/04 15:48:49;;;;;;;15.88;8.00;;;;;;;;;;6239200;28;20109;-83
2022/03/04 15:51:52;;;;;;;15.60;7.22;;;;;;;;;;6234609;28;20049;-81
2022/03/04 15:54:54;;;;;;;;;;;;;;;;;;6248826;28;20128;-82
2022/03/04 15:57:55;;;;;;;13.98;5.88;;;;;;;;;;6231014;28;19975;-82
2022/03/04 16:00:57;;;;;;;15.68;6.68;;;;;;;;;;6271658;28;20585;-83
2022/03/04 16:04:00;;;;;;;13.23;6.28;;;;;;;;;;6241116;28;20507;-85
2022/03/04 16:07:02;;;;;;;13.15;5.88;;;;;;;;;;6227938;28;20060;-81
2022/03/04 16:10:04;;;;;;;11.95;5.70;;;;;;;;;;6219637;28;20041;-83
2022/03/04 16:13:06;;;;;;;10.35;5.05;;;;;;;;;;6234759;28;20806;-78
2022/03/04 16:16:12;;;;;;;13.93;6.38;;;;;;;;;;6243347;28;20091;-80
2022/03/04 16:19:14;;;;;;;13.55;6.78;;;;;;;;;;6241360;28;20384;-80
2022/03/04 16:22:16;;;;;;;18.13;7.25;;;;;;;;;;6222596;28;20117;-80
2022/03/04 16:25:17;;;;;;;14.88;6.82;;;;;;;;;;6221492;28;20117;-79
2022/03/04 16:28:20;;;;;;;16.13;7.05;;;;;;;;;;6221449;28;20053;-83
2022/03/04 16:31:22;;;;;;;15.25;6.75;;;;;;;;;;6253920;28;20050;-82
2022/03/04 16:34:24;;;;;;;18.67;9.82;;;;;;;;;;6222459;28;20050;-81
2022/03/04 16:37:27;;;;;;;15.52;7.28;;;;;;;;;;6220155;28;20420;-83
2022/03/04 16:40:28;;;;;;;23.60;9.90;;;;;;;;;;6237262;28;20101;-83
2022/03/04 16:43:31;;;;;;;19.33;10.50;;;;;;;;;;6242360;28;20436;-83
2022/03/04 16:46:34;;;;;;;21.75;10.75;;;;;;;;;;6246896;28;20425;-82
2022/03/04 16:49:56;;;;;;;23.77;12.63;;;;;;;;;;6240591;28;20046;-83
2022/03/04 16:52:58;;;;;;;23.02;8.35;;;;;;;;;;6219032;28;20057;-81
2022/03/04 16:56:00;;;;;;;16.38;7.80;;;;;;;;;;6218441;28;20109;-80
2022/03/04 16:59:06;;;;;;;19.42;9.35;;;;;;;;;;6225555;28;20064;-82
2022/03/04 17:02:28;;;;;;;19.95;8.65;;;;;;;;;;6239216;28;20502;-82
2022/03/04 17:05:32;;;;;;;18.00;7.78;;;;;;;;;;6242416;28;20702;-81
2022/03/04 17:08:33;;;;;;;20.45;8.45;;;;;;;;;;6243052;28;20124;-83
2022/03/04 17:11:35;;;;;;;21.83;8.10;;;;;;;;;;6235576;28;20042;-81
2022/03/04 17:14:38;;;;;;;16.35;7.28;;;;;;;;;;6216873;28;20038;-82
2022/03/04 17:17:40;;;;;;;40.08;16.42;;;;;;;;;;6216757;28;20088;-81
2022/03/04 17:20:42;;;;;;;126.03;34.40;;;;;;;;;;6216649;28;20526;-81
2022/03/04 17:23:43;;;;;;;27.23;11.98;;;;;;;;;;6193553;28;20120;-81
2022/03/04 17:26:45;;;;;;;24.75;9.25;;;;;;;;;;6219611;28;20045;-81
2022/03/04 17:29:48;;;;;;;25.52;9.32;;;;;;;;;;6240351;28;20068;-82
2022/03/04 17:32:50;;;;;;;21.67;8.90;;;;;;;;;;6216971;28;20101;-79
2022/03/04 17:35:52;;;;;;;20.10;8.57;;;;;;;;;;6230766;28;20550;-81
2022/03/04 17:38:54;;;;;;;26.73;9.27;;;;;;;;;;6207974;28;20070;-79
2022/03/04 17:41:56;;;;;;;24.67;10.32;;;;;;;;;;6221837;28;20073;-83
2022/03/04 17:44:58;;;;;;;29.58;9.88;;;;;;;;;;6224193;28;20041;-81
2022/03/04 17:48:00;;;;;;;27.67;9.60;;;;;;;;;;6239401;28;20120;-83
2022/03/04 17:51:01;;;;;;;25.33;11.45;;;;;;;;;;6231974;28;20048;-81
2022/03/04 17:54:04;;;;;;;33.25;12.57;;;;;;;;;;6238688;28;20041;-81
2022/03/04 17:57:07;;;;;;;30.83;11.13;;;;;;;;;;6234097;28;20064;-79
2022/03/04 18:00:10;;;;;;;32.08;12.45;;;;;;;;;;6221163;28;20046;-82